createdAt,value
2017-08-23T00:00:37.608Z,87.70
2017-08-23T00:03:05.272Z,87.70
2017-08-23T00:05:32.815Z,87.30
2017-08-23T00:08:00.275Z,87.80
2017-08-23T00:10:27.805Z,88.10
2017-08-23T00:12:55.261Z,87.80
2017-08-23T00:15:22.783Z,87.70
2017-08-23T00:17:50.385Z,87.70
2017-08-23T00:20:17.846Z,87.80
2017-08-23T00:22:45.296Z,88.20
2017-08-23T00:25:12.767Z,88.20
2017-08-23T00:27:40.303Z,88.60
2017-08-23T00:30:07.752Z,88.90
2017-08-23T00:32:35.488Z,89.50
2017-08-23T00:35:03.031Z,89.50
2017-08-23T00:37:30.484Z,90.30
2017-08-23T00:39:58.025Z,89.60
2017-08-23T00:42:25.561Z,89.90
2017-08-23T00:44:53.108Z,90.30
2017-08-23T00:47:20.747Z,90.70
2017-08-23T00:49:48.288Z,90.30
2017-08-23T00:52:15.944Z,90.40
2017-08-23T00:54:43.487Z,90.60
2017-08-23T00:57:10.948Z,90.40
2017-08-23T00:59:38.404Z,90.00
2017-08-23T01:02:05.876Z,90.00
2017-08-23T01:04:33.332Z,90.20
2017-08-23T01:07:00.891Z,90.30
2017-08-23T01:09:28.432Z,90.30
2017-08-23T01:11:55.897Z,90.60
2017-08-23T01:14:23.353Z,90.60
2017-08-23T01:16:50.848Z,90.70
2017-08-23T01:19:18.413Z,90.80
2017-08-23T01:21:46.049Z,90.90
2017-08-23T01:24:13.596Z,91.30
2017-08-23T01:26:41.143Z,90.90
2017-08-23T01:29:08.780Z,91.40
2017-08-23T01:31:36.336Z,91.40
2017-08-23T01:34:04.552Z,91.60
2017-08-23T01:36:32.032Z,91.60
2017-08-23T01:38:59.492Z,91.70
2017-08-23T01:41:27.013Z,91.50
2017-08-23T01:43:54.464Z,91.50
2017-08-23T01:46:21.920Z,91.50
2017-08-23T01:48:49.639Z,91.60
2017-08-23T01:51:17.096Z,91.90
2017-08-23T01:53:45.315Z,91.90
2017-08-23T01:56:12.883Z,91.80
2017-08-23T01:58:40.432Z,91.70
2017-08-23T02:01:07.922Z,91.70
2017-08-23T02:03:35.431Z,91.90
2017-08-23T02:06:02.961Z,91.90
2017-08-23T02:08:30.509Z,91.90
2017-08-23T02:10:58.732Z,92.10
2017-08-23T02:13:26.188Z,92.00
2017-08-23T02:15:53.843Z,92.10
2017-08-23T02:18:21.392Z,92.20
2017-08-23T02:20:48.935Z,92.60
2017-08-23T02:23:16.403Z,92.40
2017-08-23T02:25:43.862Z,92.30
2017-08-23T02:28:11.424Z,92.50
2017-08-23T02:30:38.909Z,92.50
2017-08-23T02:33:06.449Z,92.60
2017-08-23T02:35:33.998Z,92.70
2017-08-23T02:38:01.537Z,92.70
2017-08-23T02:40:29.076Z,92.90
2017-08-23T02:42:56.625Z,93.20
2017-08-23T02:45:24.104Z,92.90
2017-08-23T02:47:51.609Z,92.80
2017-08-23T02:50:19.352Z,92.90
2017-08-23T02:52:47.008Z,93.10
2017-08-23T02:55:14.557Z,93.30
2017-08-23T02:57:42.096Z,93.30
2017-08-23T03:00:09.632Z,93.50
2017-08-23T03:02:37.175Z,93.60
2017-08-23T03:05:04.720Z,93.60
2017-08-23T03:07:32.179Z,93.90
2017-08-23T03:09:59.808Z,93.60
2017-08-23T03:12:27.327Z,93.70
2017-08-23T03:14:54.867Z,93.70
2017-08-23T03:17:22.403Z,93.80
2017-08-23T03:19:49.879Z,93.80
2017-08-23T03:22:17.426Z,93.90
2017-08-23T03:24:45.067Z,94.00
2017-08-23T03:27:12.524Z,94.00
2017-08-23T03:29:39.992Z,94.10
2017-08-23T03:32:07.695Z,94.10
2017-08-23T03:34:35.239Z,94.00
2017-08-23T03:37:03.766Z,94.30
2017-08-23T03:39:31.416Z,94.30
2017-08-23T03:41:58.879Z,94.30
2017-08-23T03:44:26.343Z,94.30
2017-08-23T03:46:54.796Z,94.30
2017-08-23T03:49:22.344Z,94.30
2017-08-23T03:51:49.897Z,94.30
2017-08-23T03:54:17.430Z,94.40
2017-08-23T03:56:44.968Z,94.40
2017-08-23T03:59:12.432Z,94.50
2017-08-23T04:01:39.971Z,94.50
2017-08-23T04:04:07.508Z,94.60
2017-08-23T04:06:35.763Z,94.30
2017-08-23T04:09:03.264Z,94.30
2017-08-23T04:11:30.753Z,94.40
2017-08-23T04:13:58.267Z,94.30
2017-08-23T04:16:26.530Z,94.60
2017-08-23T04:18:53.988Z,94.50
2017-08-23T04:21:21.507Z,94.60
2017-08-23T04:23:49.259Z,94.60
2017-08-23T04:26:16.717Z,95.10
2017-08-23T04:28:44.605Z,94.70
2017-08-23T04:31:12.097Z,94.70
2017-08-23T04:33:40.357Z,95.00
2017-08-23T04:36:07.849Z,95.00
2017-08-23T04:38:35.335Z,95.00
2017-08-23T04:41:02.799Z,95.10
2017-08-23T04:43:30.327Z,95.10
2017-08-23T04:45:58.583Z,95.10
2017-08-23T04:48:26.137Z,95.10
2017-08-23T04:50:53.672Z,95.00
2017-08-23T04:53:21.215Z,94.90
2017-08-23T04:55:48.755Z,94.80
2017-08-23T04:58:16.215Z,94.80
2017-08-23T05:00:43.732Z,94.80
2017-08-23T05:03:11.215Z,94.80
2017-08-23T05:05:38.684Z,95.20
2017-08-23T05:08:06.264Z,94.60
2017-08-23T05:10:33.767Z,94.40
2017-08-23T05:13:01.223Z,94.90
2017-08-23T05:15:28.687Z,94.50
2017-08-23T05:17:56.268Z,94.50
2017-08-23T05:20:23.739Z,94.20
2017-08-23T05:22:51.200Z,94.10
2017-08-23T05:25:18.709Z,94.10
2017-08-23T05:27:46.169Z,94.30
2017-08-23T05:30:13.700Z,93.80
2017-08-23T05:32:41.185Z,94.00
2017-08-23T05:35:08.695Z,93.90
2017-08-23T05:37:36.201Z,94.00
2017-08-23T05:40:03.840Z,94.00
2017-08-23T05:42:31.299Z,93.90
2017-08-23T05:44:58.828Z,93.60
2017-08-23T05:47:26.478Z,93.80
2017-08-23T05:49:53.936Z,94.20
2017-08-23T05:52:21.463Z,93.80
2017-08-23T05:54:48.965Z,93.40
2017-08-23T05:57:16.440Z,93.60
2017-08-23T05:59:43.904Z,93.40
2017-08-23T06:02:11.396Z,93.50
2017-08-23T06:04:38.855Z,93.40
2017-08-23T06:07:06.412Z,93.30
2017-08-23T06:09:33.933Z,93.20
2017-08-23T06:12:01.396Z,93.20
2017-08-23T06:14:28.942Z,93.30
2017-08-23T06:16:56.403Z,93.40
2017-08-23T06:19:23.930Z,93.50
2017-08-23T06:21:51.464Z,93.30
2017-08-23T06:24:19.008Z,92.60
2017-08-23T06:26:46.551Z,92.90
2017-08-23T06:29:14.028Z,92.50
2017-08-23T06:31:41.488Z,92.30
2017-08-23T06:34:08.943Z,91.90
2017-08-23T06:36:36.636Z,91.80
2017-08-23T06:39:04.096Z,91.60
2017-08-23T06:41:32.340Z,92.20
2017-08-23T06:43:59.835Z,92.20
2017-08-23T06:46:27.292Z,91.40
2017-08-23T06:48:54.779Z,91.10
2017-08-23T06:51:23.020Z,90.90
2017-08-23T06:53:50.572Z,90.90
2017-08-23T06:56:18.824Z,91.90
2017-08-23T06:58:46.368Z,91.90
2017-08-23T07:01:14.011Z,91.90
2017-08-23T07:03:41.560Z,90.90
2017-08-23T07:06:09.047Z,90.60
2017-08-23T07:08:36.496Z,90.90
2017-08-23T07:11:03.988Z,91.60
2017-08-23T07:13:31.532Z,91.90
2017-08-23T07:15:59.076Z,91.10
2017-08-23T07:18:26.541Z,90.70
2017-08-23T07:20:54.055Z,90.40
2017-08-23T07:23:22.320Z,89.20
2017-08-23T07:25:49.856Z,89.20
2017-08-23T07:28:17.511Z,89.70
2017-08-23T07:30:44.999Z,90.60
2017-08-23T07:33:12.544Z,91.30
2017-08-23T07:35:40.598Z,90.60
2017-08-23T07:38:08.200Z,90.80
2017-08-23T07:40:36.158Z,90.40
2017-08-23T07:43:03.696Z,90.30
2017-08-23T07:45:31.152Z,90.10
2017-08-23T07:48:00.060Z,90.00
2017-08-23T07:50:27.583Z,90.50
2017-08-23T07:52:55.052Z,88.90
2017-08-23T07:55:22.574Z,89.70
2017-08-23T07:57:50.095Z,89.60
2017-08-23T08:00:17.555Z,90.50
2017-08-23T08:02:45.096Z,90.40
2017-08-23T08:05:12.741Z,90.50
2017-08-23T08:07:40.199Z,90.20
2017-08-23T08:10:07.652Z,90.40
2017-08-23T08:12:35.151Z,90.40
2017-08-23T08:15:02.616Z,89.80
2017-08-23T08:17:30.074Z,89.50
2017-08-23T08:19:57.524Z,89.50
2017-08-23T08:22:24.983Z,89.30
2017-08-23T08:24:52.481Z,90.10
2017-08-23T08:27:19.936Z,87.70
2017-08-23T08:29:47.467Z,87.00
2017-08-23T08:32:15.208Z,87.00
2017-08-23T08:34:42.755Z,87.70
2017-08-23T08:37:10.304Z,86.90
2017-08-23T08:39:38.047Z,85.00
2017-08-23T08:42:05.504Z,85.00
2017-08-23T08:44:32.951Z,87.40
2017-08-23T08:47:01.291Z,87.80
2017-08-23T08:49:28.836Z,87.90
2017-08-23T08:51:56.291Z,87.70
2017-08-23T08:54:23.799Z,84.20
2017-08-23T08:56:51.335Z,84.00
2017-08-23T08:59:18.800Z,85.90
2017-08-23T09:01:46.428Z,83.70
2017-08-23T09:04:13.971Z,83.20
2017-08-23T09:06:41.515Z,84.30
2017-08-23T09:09:09.060Z,84.40
2017-08-23T09:11:36.518Z,84.20
2017-08-23T09:14:03.971Z,80.20
2017-08-23T09:16:31.468Z,80.40
2017-08-23T09:18:58.916Z,81.90
2017-08-23T09:21:26.472Z,81.10
2017-08-23T09:23:54.021Z,81.50
2017-08-23T09:26:21.472Z,79.80
2017-08-23T09:28:49.004Z,79.70
2017-08-23T09:31:16.647Z,77.00
2017-08-23T09:33:44.103Z,78.10
2017-08-23T09:36:11.555Z,80.60
2017-08-23T09:38:39.280Z,77.70
2017-08-23T09:41:06.824Z,74.50
2017-08-23T09:43:34.321Z,76.90
2017-08-23T09:46:01.808Z,74.00
2017-08-23T09:48:29.352Z,73.90
2017-08-23T09:50:56.887Z,74.40
2017-08-23T09:53:24.436Z,71.50
2017-08-23T09:55:51.980Z,72.00
2017-08-23T09:58:19.436Z,72.10
2017-08-23T10:00:47.061Z,70.80
2017-08-23T10:03:14.613Z,69.60
2017-08-23T10:05:43.049Z,69.30
2017-08-23T10:08:10.515Z,71.20
2017-08-23T10:10:37.968Z,70.40
2017-08-23T10:13:05.506Z,69.80
2017-08-23T10:15:33.043Z,69.10
2017-08-23T10:18:00.540Z,68.50
2017-08-23T10:20:28.033Z,68.80
2017-08-23T10:22:55.571Z,68.80
2017-08-23T10:25:23.215Z,71.20
2017-08-23T10:27:50.666Z,70.20
2017-08-23T10:30:18.180Z,73.70
2017-08-23T10:32:45.668Z,70.70
2017-08-23T10:35:13.904Z,69.20
2017-08-23T10:37:41.452Z,69.00
2017-08-23T10:40:09.097Z,66.80
2017-08-23T10:42:36.648Z,65.70
2017-08-23T10:45:04.184Z,66.20
2017-08-23T10:47:31.724Z,65.90
2017-08-23T10:49:59.189Z,66.50
2017-08-23T10:52:26.676Z,63.20
2017-08-23T10:54:54.152Z,61.80
2017-08-23T10:57:21.609Z,63.40
2017-08-23T10:59:49.088Z,64.20
2017-08-23T11:02:16.576Z,60.20
2017-08-23T11:04:44.032Z,63.50
2017-08-23T11:07:12.280Z,58.40
2017-08-23T11:09:39.841Z,58.40
2017-08-23T11:12:07.408Z,60.30
2017-08-23T11:14:34.948Z,58.00
2017-08-23T11:17:02.404Z,57.80
2017-08-23T11:19:29.856Z,58.30
2017-08-23T11:21:57.571Z,56.50
2017-08-23T11:24:25.023Z,54.30
2017-08-23T11:26:52.476Z,50.90
2017-08-23T11:31:53.987Z,46.80
2017-08-23T11:34:21.540Z,45.30
2017-08-23T11:36:49.079Z,42.90
2017-08-23T11:39:16.532Z,41.70
2017-08-23T11:41:44.168Z,40.80
2017-08-23T11:44:11.621Z,36.30
2017-08-23T11:46:39.069Z,36.40
2017-08-23T11:49:06.551Z,35.90
2017-08-23T11:51:34.004Z,34.80
2017-08-23T11:54:01.455Z,32.40
2017-08-23T11:56:29.073Z,32.00
2017-08-23T11:58:56.525Z,31.30
2017-08-23T12:01:24.004Z,30.60
2017-08-23T12:03:51.689Z,29.80
2017-08-23T12:06:19.111Z,28.30
2017-08-23T12:08:46.559Z,28.20
2017-08-23T12:11:14.048Z,26.20
2017-08-23T12:13:41.496Z,26.00
2017-08-23T12:16:08.969Z,26.70
2017-08-23T12:18:37.336Z,26.10
2017-08-23T12:21:04.793Z,26.00
2017-08-23T12:23:32.243Z,26.00
2017-08-23T12:25:59.724Z,25.20
2017-08-23T12:28:27.178Z,25.30
2017-08-23T12:30:54.699Z,24.30
2017-08-23T12:33:22.171Z,24.50
2017-08-23T12:35:49.623Z,25.30
2017-08-23T12:38:17.068Z,24.20
2017-08-23T12:40:44.524Z,24.50
2017-08-23T12:43:11.976Z,24.00
2017-08-23T12:45:39.459Z,23.40
2017-08-23T12:48:06.912Z,23.20
2017-08-23T12:50:34.366Z,23.00
2017-08-23T12:53:02.108Z,22.90
2017-08-23T12:55:29.555Z,22.40
2017-08-23T12:57:57.012Z,23.20
2017-08-23T13:00:24.476Z,23.20
2017-08-23T13:02:51.927Z,22.70
2017-08-23T13:05:19.381Z,22.60
2017-08-23T13:07:46.863Z,22.70
2017-08-23T13:10:15.579Z,23.40
2017-08-23T13:12:43.108Z,21.90
2017-08-23T13:15:10.824Z,21.90
2017-08-23T13:17:38.271Z,21.60
2017-08-23T13:20:05.720Z,21.20
2017-08-23T13:22:33.448Z,21.70
2017-08-23T13:25:00.899Z,21.00
2017-08-23T13:27:28.352Z,21.50
2017-08-23T13:29:55.960Z,21.40
2017-08-23T13:32:23.411Z,21.70
2017-08-23T13:34:50.872Z,21.50
2017-08-23T13:37:18.421Z,21.50
2017-08-23T13:39:45.848Z,21.60
2017-08-23T13:42:13.388Z,21.00
2017-08-23T13:44:40.860Z,21.50
2017-08-23T13:47:08.371Z,22.00
2017-08-23T13:49:35.824Z,22.20
2017-08-23T13:52:03.360Z,22.00
2017-08-23T13:54:30.903Z,22.20
2017-08-23T13:56:58.443Z,22.00
2017-08-23T13:59:25.991Z,22.50
2017-08-23T14:01:53.537Z,22.10
2017-08-23T14:04:20.995Z,22.60
2017-08-23T14:06:48.459Z,22.60
2017-08-23T14:09:15.960Z,22.60
2017-08-23T14:11:43.504Z,22.40
2017-08-23T14:14:11.149Z,21.70
2017-08-23T14:16:38.693Z,23.20
2017-08-23T14:19:06.232Z,22.80
2017-08-23T14:21:33.881Z,22.70
2017-08-23T14:24:01.328Z,23.00
2017-08-23T14:26:28.779Z,23.00
2017-08-23T14:28:56.507Z,23.20
2017-08-23T14:31:23.971Z,22.40
2017-08-23T14:33:51.458Z,22.10
2017-08-23T14:36:19.140Z,22.40
2017-08-23T14:38:46.684Z,22.70
2017-08-23T14:41:14.228Z,23.20
2017-08-23T14:43:41.772Z,23.50
2017-08-23T14:46:09.236Z,22.70
2017-08-23T14:48:36.683Z,23.20
2017-08-23T14:51:04.159Z,23.60
2017-08-23T14:53:31.620Z,24.10
2017-08-23T14:55:59.122Z,24.20
2017-08-23T14:58:26.584Z,24.00
2017-08-23T15:00:54.052Z,24.20
2017-08-23T15:03:21.508Z,23.70
2017-08-23T15:05:48.964Z,24.20
2017-08-23T15:08:16.698Z,24.00
2017-08-23T15:10:44.148Z,24.00
2017-08-23T15:13:11.603Z,24.00
2017-08-23T15:15:39.067Z,24.30
2017-08-23T15:18:06.763Z,25.40
2017-08-23T15:20:34.212Z,24.90
2017-08-23T15:23:01.663Z,24.40
2017-08-23T15:25:29.120Z,23.70
2017-08-23T15:27:56.581Z,24.40
2017-08-23T15:30:24.075Z,24.20
2017-08-23T15:32:51.557Z,25.00
2017-08-23T15:35:19.027Z,26.00
2017-08-23T15:37:46.511Z,26.20
2017-08-23T15:40:14.737Z,26.60
2017-08-23T15:42:42.217Z,26.60
2017-08-23T15:45:09.828Z,26.90
2017-08-23T15:47:37.288Z,27.30
2017-08-23T15:50:04.748Z,28.50
2017-08-23T15:52:32.209Z,28.40
2017-08-23T15:54:59.672Z,28.90
2017-08-23T15:57:27.127Z,29.30
2017-08-23T15:59:54.588Z,29.60
2017-08-23T16:02:22.047Z,30.30
2017-08-23T16:04:49.700Z,29.70
2017-08-23T16:07:17.156Z,29.70
2017-08-23T16:09:44.605Z,32.30
2017-08-23T16:12:12.073Z,32.00
2017-08-23T16:14:39.751Z,30.80
2017-08-23T16:17:07.217Z,31.70
2017-08-23T16:19:34.682Z,31.70
2017-08-23T16:22:02.151Z,32.90
2017-08-23T16:24:29.604Z,34.30
2017-08-23T16:26:57.048Z,36.60
2017-08-23T16:29:24.639Z,36.50
2017-08-23T16:31:52.095Z,36.70
2017-08-23T16:34:19.592Z,38.20
2017-08-23T16:36:47.138Z,39.30
2017-08-23T16:39:14.675Z,38.70
2017-08-23T16:41:42.136Z,38.90
2017-08-23T16:44:09.608Z,40.80
2017-08-23T16:46:37.103Z,42.70
2017-08-23T16:49:04.561Z,42.80
2017-08-23T16:51:32.807Z,44.60
2017-08-23T16:54:00.273Z,44.50
2017-08-23T16:56:27.787Z,46.00
2017-08-23T16:58:55.240Z,46.20
2017-08-23T17:01:22.687Z,46.10
2017-08-23T17:03:50.941Z,46.00
2017-08-23T17:06:18.395Z,45.90
2017-08-23T17:08:45.975Z,47.70
2017-08-23T17:11:13.763Z,47.60
2017-08-23T17:13:41.220Z,47.80
2017-08-23T17:16:08.775Z,48.30
2017-08-23T17:18:36.287Z,47.90
2017-08-23T17:21:03.872Z,48.70
2017-08-23T17:23:31.387Z,48.70
2017-08-23T17:25:58.929Z,47.90
2017-08-23T17:28:26.468Z,49.00
2017-08-23T17:30:53.920Z,49.20
2017-08-23T17:33:21.452Z,49.70
2017-08-23T17:35:49.179Z,49.70
2017-08-23T17:38:16.847Z,50.50
2017-08-23T17:40:44.396Z,50.40
2017-08-23T17:43:11.947Z,50.90
2017-08-23T17:45:39.479Z,51.50
2017-08-23T17:48:06.967Z,51.80
2017-08-23T17:50:34.480Z,52.00
2017-08-23T17:53:01.940Z,52.40
2017-08-23T17:55:29.589Z,52.70
2017-08-23T17:57:57.092Z,53.10
2017-08-23T18:00:24.644Z,53.30
2017-08-23T18:02:52.120Z,53.50
2017-08-23T18:05:19.572Z,54.10
2017-08-23T18:07:47.073Z,54.30
2017-08-23T18:10:14.631Z,54.80
2017-08-23T18:12:42.147Z,54.80
2017-08-23T18:15:09.695Z,55.00
2017-08-23T18:17:37.151Z,55.60
2017-08-23T18:20:04.685Z,55.70
2017-08-23T18:22:32.219Z,56.70
2017-08-23T18:24:59.680Z,57.20
2017-08-23T18:27:27.407Z,57.40
2017-08-23T18:29:54.863Z,57.60
2017-08-23T18:32:22.404Z,58.60
2017-08-23T18:34:49.939Z,59.00
2017-08-23T18:37:17.406Z,58.80
2017-08-23T18:39:44.880Z,59.00
2017-08-23T18:42:12.336Z,60.20
2017-08-23T18:44:39.811Z,60.10
2017-08-23T18:47:07.300Z,60.80
2017-08-23T18:49:34.756Z,62.30
2017-08-23T18:52:02.228Z,62.50
2017-08-23T18:54:29.772Z,62.60
2017-08-23T18:56:57.224Z,63.10
2017-08-23T18:59:24.777Z,63.60
2017-08-23T19:01:52.243Z,63.50
2017-08-23T19:04:20.565Z,63.70
2017-08-23T19:06:48.018Z,63.70
2017-08-23T19:09:15.649Z,65.10
2017-08-23T19:11:43.096Z,65.00
2017-08-23T19:14:10.548Z,65.90
2017-08-23T19:16:38.035Z,65.80
2017-08-23T19:19:05.511Z,65.90
2017-08-23T19:21:33.056Z,65.90
2017-08-23T19:24:00.516Z,66.60
2017-08-23T19:26:28.003Z,66.30
2017-08-23T19:28:55.588Z,67.50
2017-08-23T19:31:23.044Z,67.50
2017-08-23T19:33:50.571Z,68.20
2017-08-23T19:36:18.120Z,69.00
2017-08-23T19:38:45.583Z,69.40
2017-08-23T19:41:13.044Z,69.00
2017-08-23T19:43:40.746Z,68.50
2017-08-23T19:46:08.210Z,68.10
2017-08-23T19:48:35.668Z,69.60
2017-08-23T19:51:03.159Z,70.40
2017-08-23T19:53:30.623Z,70.60
2017-08-23T19:55:58.195Z,70.90
2017-08-23T19:58:25.704Z,71.20
2017-08-23T20:00:53.167Z,71.70
2017-08-23T20:03:20.649Z,72.10
2017-08-23T20:05:48.104Z,72.20
2017-08-23T20:08:15.569Z,72.20
2017-08-23T20:10:43.044Z,72.20
2017-08-23T20:13:11.276Z,71.70
2017-08-23T20:15:38.816Z,72.70
2017-08-23T20:18:06.455Z,73.20
2017-08-23T20:20:33.915Z,73.10
2017-08-23T20:23:01.446Z,72.80
2017-08-23T20:25:28.984Z,73.70
2017-08-23T20:27:56.528Z,74.00
2017-08-23T20:30:24.180Z,74.50
2017-08-23T20:32:51.777Z,74.80
2017-08-23T20:35:19.269Z,75.40
2017-08-23T20:37:46.912Z,75.70
2017-08-23T20:40:14.460Z,75.80
2017-08-23T20:42:41.928Z,75.80
2017-08-23T20:45:09.404Z,75.60
2017-08-23T20:47:36.927Z,74.80
2017-08-23T20:50:04.384Z,75.10
2017-08-23T20:52:31.871Z,75.80
2017-08-23T20:54:59.523Z,76.40
2017-08-23T20:57:27.051Z,76.70
2017-08-23T20:59:54.555Z,76.80
2017-08-23T21:02:22.433Z,77.70
2017-08-23T21:04:49.991Z,77.70
2017-08-23T21:07:17.536Z,78.20
2017-08-23T21:09:45.076Z,77.80
2017-08-23T21:12:12.824Z,78.20
2017-08-23T21:14:40.364Z,78.70
2017-08-23T21:17:07.920Z,78.20
2017-08-23T21:19:35.436Z,76.90
2017-08-23T21:22:02.896Z,78.10
2017-08-23T21:24:30.440Z,76.60
2017-08-23T21:26:57.989Z,76.50
2017-08-23T21:29:25.656Z,76.50
2017-08-23T21:31:53.171Z,75.60
2017-08-23T21:34:20.664Z,76.40
2017-08-23T21:36:48.123Z,76.50
2017-08-23T21:39:15.585Z,76.30
2017-08-23T21:41:43.141Z,76.30
2017-08-23T21:44:10.683Z,76.80
2017-08-23T21:46:38.147Z,77.60
2017-08-23T21:49:05.676Z,77.80
2017-08-23T21:51:33.144Z,76.70
2017-08-23T21:54:00.660Z,76.40
2017-08-23T21:56:28.201Z,76.90
2017-08-23T21:58:55.665Z,77.40
2017-08-23T22:01:23.191Z,77.90
2017-08-23T22:03:50.723Z,78.60
2017-08-23T22:06:18.269Z,80.00
2017-08-23T22:08:46.020Z,79.10
2017-08-23T22:11:13.569Z,79.80
2017-08-23T22:13:41.029Z,79.80
2017-08-23T22:16:08.548Z,80.70
2017-08-23T22:18:36.083Z,79.60
2017-08-23T22:21:03.544Z,80.30
2017-08-23T22:23:31.176Z,79.80
2017-08-23T22:25:58.632Z,78.80
2017-08-23T22:28:26.096Z,79.60
2017-08-23T22:30:53.596Z,78.70
2017-08-23T22:33:21.143Z,78.10
2017-08-23T22:35:48.694Z,78.10
2017-08-23T22:38:16.165Z,77.60
2017-08-23T22:40:43.675Z,78.10
2017-08-23T22:43:11.147Z,78.50
2017-08-23T22:45:38.630Z,77.80
2017-08-23T22:48:06.088Z,78.20
2017-08-23T22:50:33.640Z,77.50
2017-08-23T22:53:01.119Z,78.30
2017-08-23T22:55:28.573Z,78.20
2017-08-23T22:57:56.069Z,78.20
2017-08-23T23:00:23.611Z,78.20
2017-08-23T23:02:51.076Z,77.90
2017-08-23T23:05:18.531Z,79.20
2017-08-23T23:07:46.036Z,80.00
2017-08-23T23:10:13.494Z,78.80
2017-08-23T23:12:40.952Z,79.10
2017-08-23T23:15:08.463Z,77.90
2017-08-23T23:17:36.312Z,78.40
2017-08-23T23:20:03.860Z,78.80
2017-08-23T23:22:31.400Z,80.10
2017-08-23T23:24:58.956Z,79.20
2017-08-23T23:27:27.167Z,80.70
2017-08-23T23:29:54.648Z,80.70
2017-08-23T23:32:22.103Z,80.90
2017-08-23T23:34:50.340Z,81.70
2017-08-23T23:37:17.888Z,81.70
2017-08-23T23:39:45.433Z,81.30
2017-08-23T23:42:12.979Z,80.90
2017-08-23T23:44:40.443Z,81.00
2017-08-23T23:47:07.961Z,81.40
2017-08-23T23:49:35.708Z,80.90
2017-08-23T23:52:03.163Z,81.20
2017-08-23T23:54:30.637Z,80.90
2017-08-23T23:56:58.132Z,81.40
2017-08-23T23:59:25.587Z,81.80
